Weather at Glencoe Airport

Public forecast

Using degrees Celsius for public forecast. Weather courtesy of forecast.io.

Closest aviation weather report (METAR) to Glencoe Airport

Closest report is Coonamble Airport, 39.3 nm (72.8 km) NNE. Retrieved 2022/01/27 09:00 UTC (17 minutes ago):

YCNM 270900Z AUTO 03011KT //// // ////// 24/21 Q1011

Closest aviation forecast (TAF) to Glencoe Airport

Forecast is more than 12 hours old.

Closest forecast is Dubbo City Regional Airport, 40.6 nm (75.2 km) SSE. Retrieved 2022/01/26 12:37 UTC (21 hours ago):

TAF YSDU 261036Z 2612/2706 07010KT 9999 SCT050 FM261500 08010KT 9999 -SHRA BKN030